sensor_id;sensor_type;location;lat;lon;timestamp;temperature;humidity
13673;DHT22;6909;52.202;9.876;2022-11-20T18:01:29;-1.20;99.90
13673;DHT22;6909;52.202;9.876;2022-11-20T18:03:56;-1.10;99.90
13673;DHT22;6909;52.202;9.876;2022-11-20T18:06:24;-1.00;99.90
13673;DHT22;6909;52.202;9.876;2022-11-20T18:08:51;-0.90;99.90
13673;DHT22;6909;52.202;9.876;2022-11-20T18:11:21;-0.80;99.90
13673;DHT22;6909;52.202;9.876;2022-11-20T18:13:51;-0.70;99.90
13673;DHT22;6909;52.202;9.876;2022-11-20T18:16:39;-0.70;99.90
13673;DHT22;6909;52.202;9.876;2022-11-20T18:19:07;-0.70;99.90
13673;DHT22;6909;52.202;9.876;2022-11-20T18:21:34;-0.70;99.90
13673;DHT22;6909;52.202;9.876;2022-11-20T18:24:01;-0.60;99.90
13673;DHT22;6909;52.202;9.876;2022-11-20T18:26:28;-0.60;99.90
13673;DHT22;6909;52.202;9.876;2022-11-20T18:28:55;-0.60;99.90
13673;DHT22;6909;52.202;9.876;2022-11-20T18:31:23;-0.60;99.90
13673;DHT22;6909;52.202;9.876;2022-11-20T18:33:51;-0.60;99.90
13673;DHT22;6909;52.202;9.876;2022-11-20T18:36:21;-0.60;99.90
13673;DHT22;6909;52.202;9.876;2022-11-20T18:38:50;-0.60;99.90
13673;DHT22;6909;52.202;9.876;2022-11-20T18:41:18;-0.60;99.90
13673;DHT22;6909;52.202;9.876;2022-11-20T18:43:59;-0.60;99.90
13673;DHT22;6909;52.202;9.876;2022-11-20T18:46:44;-0.60;99.90
13673;DHT22;6909;52.202;9.876;2022-11-20T18:49:14;-0.60;99.90
13673;DHT22;6909;52.202;9.876;2022-11-20T18:51:41;-0.60;99.90
13673;DHT22;6909;52.202;9.876;2022-11-20T18:54:09;-0.60;99.90
13673;DHT22;6909;52.202;9.876;2022-11-20T18:56:36;-0.60;99.90
13673;DHT22;6909;52.202;9.876;2022-11-20T18:59:05;-0.60;99.90
13673;DHT22;6909;52.202;9.876;2022-11-20T19:01:33;-0.60;99.90
13673;DHT22;6909;52.202;9.876;2022-11-20T19:04:00;-0.60;99.90
13673;DHT22;6909;52.202;9.876;2022-11-20T19:06:28;-0.60;99.90
13673;DHT22;6909;52.202;9.876;2022-11-20T19:08:55;-0.50;99.90
13673;DHT22;6909;52.202;9.876;2022-11-20T19:11:21;-0.50;99.90
13673;DHT22;6909;52.202;9.876;2022-11-20T19:13:48;-0.50;99.90
13673;DHT22;6909;52.202;9.876;2022-11-20T19:16:17;-0.50;99.90
13673;DHT22;6909;52.202;9.876;2022-11-20T19:18:45;-0.50;99.90
13673;DHT22;6909;52.202;9.876;2022-11-20T19:21:14;-0.50;99.90
13673;DHT22;6909;52.202;9.876;2022-11-20T19:23:42;-0.50;99.90
13673;DHT22;6909;52.202;9.876;2022-11-20T19:26:09;-0.50;99.90
13673;DHT22;6909;52.202;9.876;2022-11-20T19:28:36;-0.50;99.90
13673;DHT22;6909;52.202;9.876;2022-11-20T19:31:04;-0.50;99.90
13673;DHT22;6909;52.202;9.876;2022-11-20T19:33:31;-0.50;99.90
13673;DHT22;6909;52.202;9.876;2022-11-20T19:36:07;-0.50;99.90
13673;DHT22;6909;52.202;9.876;2022-11-20T19:38:34;-0.50;99.90
13673;DHT22;6909;52.202;9.876;2022-11-20T19:41:02;-0.50;99.90
13673;DHT22;6909;52.202;9.876;2022-11-20T19:43:29;-0.50;99.90
13673;DHT22;6909;52.202;9.876;2022-11-20T19:45:55;-0.50;99.90
13673;DHT22;6909;52.202;9.876;2022-11-20T19:48:22;-0.40;99.90
13673;DHT22;6909;52.202;9.876;2022-11-20T19:50:49;-0.40;99.90
13673;DHT22;6909;52.202;9.876;2022-11-20T19:53:16;-0.40;99.90
13673;DHT22;6909;52.202;9.876;2022-11-20T19:55:54;-0.40;99.90
13673;DHT22;6909;52.202;9.876;2022-11-20T19:58:22;-0.30;99.90
13673;DHT22;6909;52.202;9.876;2022-11-20T20:00:48;-0.30;99.90
13673;DHT22;6909;52.202;9.876;2022-11-20T20:03:15;-0.30;99.90
13673;DHT22;6909;52.202;9.876;2022-11-20T20:05:42;-0.20;99.90
13673;DHT22;6909;52.202;9.876;2022-11-20T20:08:09;-0.20;99.90
13673;DHT22;6909;52.202;9.876;2022-11-20T20:10:36;-0.20;99.90
13673;DHT22;6909;52.202;9.876;2022-11-20T20:13:03;-0.10;99.90
13673;DHT22;6909;52.202;9.876;2022-11-20T20:15:32;0.00;99.90
13673;DHT22;6909;52.202;9.876;2022-11-20T20:17:59;0.00;99.90
13673;DHT22;6909;52.202;9.876;2022-11-20T20:20:25;0.00;99.90
13673;DHT22;6909;52.202;9.876;2022-11-20T20:22:53;0.00;99.90
13673;DHT22;6909;52.202;9.876;2022-11-20T20:25:19;0.00;99.90
13673;DHT22;6909;52.202;9.876;2022-11-20T20:27:46;0.00;99.90
13673;DHT22;6909;52.202;9.876;2022-11-20T20:30:13;-0.10;99.90
13673;DHT22;6909;52.202;9.876;2022-11-20T20:32:41;0.00;99.90
13673;DHT22;6909;52.202;9.876;2022-11-20T20:35:08;0.00;99.90
13673;DHT22;6909;52.202;9.876;2022-11-20T20:37:35;0.00;99.90
13673;DHT22;6909;52.202;9.876;2022-11-20T20:40:02;0.00;99.90
13673;DHT22;6909;52.202;9.876;2022-11-20T20:42:29;0.00;99.90
13673;DHT22;6909;52.202;9.876;2022-11-20T20:44:56;0.00;99.90
13673;DHT22;6909;52.202;9.876;2022-11-20T20:47:34;-0.10;99.90
13673;DHT22;6909;52.202;9.876;2022-11-20T20:50:02;0.00;99.90
13673;DHT22;6909;52.202;9.876;2022-11-20T20:52:29;0.00;99.90
13673;DHT22;6909;52.202;9.876;2022-11-20T20:54:56;-0.10;99.90
13673;DHT22;6909;52.202;9.876;2022-11-20T20:57:23;0.00;99.90
13673;DHT22;6909;52.202;9.876;2022-11-20T20:59:50;-0.10;99.90
13673;DHT22;6909;52.202;9.876;2022-11-20T21:02:17;-0.10;99.90
13673;DHT22;6909;52.202;9.876;2022-11-20T21:04:44;-0.10;99.90
13673;DHT22;6909;52.202;9.876;2022-11-20T21:07:12;-0.10;99.90
13673;DHT22;6909;52.202;9.876;2022-11-20T21:09:39;-0.10;99.90
13673;DHT22;6909;52.202;9.876;2022-11-20T21:12:06;-0.10;99.90
13673;DHT22;6909;52.202;9.876;2022-11-20T21:14:32;-0.10;99.90
13673;DHT22;6909;52.202;9.876;2022-11-20T21:16:59;0.00;99.90
13673;DHT22;6909;52.202;9.876;2022-11-20T21:19:26;0.00;99.90
13673;DHT22;6909;52.202;9.876;2022-11-20T21:21:53;0.00;99.90
13673;DHT22;6909;52.202;9.876;2022-11-20T21:24:26;0.00;99.90
13673;DHT22;6909;52.202;9.876;2022-11-20T21:26:54;0.00;99.90
13673;DHT22;6909;52.202;9.876;2022-11-20T21:29:22;0.10;99.90
13673;DHT22;6909;52.202;9.876;2022-11-20T21:31:49;0.10;99.90
13673;DHT22;6909;52.202;9.876;2022-11-20T21:34:17;0.10;99.90
13673;DHT22;6909;52.202;9.876;2022-11-20T21:36:44;0.10;99.90
13673;DHT22;6909;52.202;9.876;2022-11-20T21:39:12;0.20;99.90
13673;DHT22;6909;52.202;9.876;2022-11-20T21:41:41;0.10;99.90
13673;DHT22;6909;52.202;9.876;2022-11-20T21:44:11;0.10;99.90
13673;DHT22;6909;52.202;9.876;2022-11-20T21:46:40;0.10;99.90
13673;DHT22;6909;52.202;9.876;2022-11-20T21:49:07;0.10;99.90
13673;DHT22;6909;52.202;9.876;2022-11-20T21:51:34;0.10;99.90
13673;DHT22;6909;52.202;9.876;2022-11-20T21:54:01;0.10;99.90
13673;DHT22;6909;52.202;9.876;2022-11-20T21:56:28;0.10;99.90
13673;DHT22;6909;52.202;9.876;2022-11-20T21:58:56;0.00;99.90
13673;DHT22;6909;52.202;9.876;2022-11-20T22:01:25;0.00;99.90
13673;DHT22;6909;52.202;9.876;2022-11-20T22:03:53;0.10;99.90
13673;DHT22;6909;52.202;9.876;2022-11-20T22:06:22;0.00;99.90
13673;DHT22;6909;52.202;9.876;2022-11-20T22:08:49;0.00;99.90
13673;DHT22;6909;52.202;9.876;2022-11-20T22:11:17;0.00;99.90
13673;DHT22;6909;52.202;9.876;2022-11-20T22:13:44;0.00;99.90
13673;DHT22;6909;52.202;9.876;2022-11-20T22:16:31;0.00;99.90
13673;DHT22;6909;52.202;9.876;2022-11-20T22:18:58;0.00;99.90
13673;DHT22;6909;52.202;9.876;2022-11-20T22:21:26;0.00;99.90
13673;DHT22;6909;52.202;9.876;2022-11-20T22:23:54;0.00;99.90
13673;DHT22;6909;52.202;9.876;2022-11-20T22:26:22;0.00;99.90
13673;DHT22;6909;52.202;9.876;2022-11-20T22:28:51;-0.10;99.90
13673;DHT22;6909;52.202;9.876;2022-11-20T22:31:20;-0.10;99.90
13673;DHT22;6909;52.202;9.876;2022-11-20T22:33:48;-0.10;99.90
13673;DHT22;6909;52.202;9.876;2022-11-20T22:36:16;-0.10;99.90
13673;DHT22;6909;52.202;9.876;2022-11-20T22:38:43;-0.10;99.90
13673;DHT22;6909;52.202;9.876;2022-11-20T22:41:12;-0.10;99.90
13673;DHT22;6909;52.202;9.876;2022-11-20T22:43:39;-0.10;99.90
13673;DHT22;6909;52.202;9.876;2022-11-20T22:46:07;-0.10;99.90
13673;DHT22;6909;52.202;9.876;2022-11-20T22:48:35;-0.10;99.90
13673;DHT22;6909;52.202;9.876;2022-11-20T22:51:05;-0.20;99.90
13673;DHT22;6909;52.202;9.876;2022-11-20T22:53:33;-0.20;99.90
13673;DHT22;6909;52.202;9.876;2022-11-20T22:56:00;-0.30;99.90
13673;DHT22;6909;52.202;9.876;2022-11-20T22:58:28;-0.30;99.90
13673;DHT22;6909;52.202;9.876;2022-11-20T23:00:56;-0.30;99.90
13673;DHT22;6909;52.202;9.876;2022-11-20T23:03:30;-0.30;99.90
13673;DHT22;6909;52.202;9.876;2022-11-20T23:05:57;-0.30;99.90
13673;DHT22;6909;52.202;9.876;2022-11-20T23:08:25;-0.30;99.90
13673;DHT22;6909;52.202;9.876;2022-11-20T23:10:57;-0.30;99.90
13673;DHT22;6909;52.202;9.876;2022-11-20T23:13:24;-0.30;99.90
13673;DHT22;6909;52.202;9.876;2022-11-20T23:15:50;-0.30;99.90
13673;DHT22;6909;52.202;9.876;2022-11-20T23:18:17;-0.30;99.90
13673;DHT22;6909;52.202;9.876;2022-11-20T23:20:44;-0.30;99.90
13673;DHT22;6909;52.202;9.876;2022-11-20T23:23:11;-0.30;99.90
13673;DHT22;6909;52.202;9.876;2022-11-20T23:25:39;-0.20;99.90
13673;DHT22;6909;52.202;9.876;2022-11-20T23:28:05;-0.20;99.90
13673;DHT22;6909;52.202;9.876;2022-11-20T23:30:32;-0.20;99.90
13673;DHT22;6909;52.202;9.876;2022-11-20T23:32:59;-0.10;99.90
13673;DHT22;6909;52.202;9.876;2022-11-20T23:35:26;-0.20;99.90
13673;DHT22;6909;52.202;9.876;2022-11-20T23:37:52;-0.10;99.90
13673;DHT22;6909;52.202;9.876;2022-11-20T23:40:19;-0.10;99.90
13673;DHT22;6909;52.202;9.876;2022-11-20T23:42:47;-0.10;99.90
13673;DHT22;6909;52.202;9.876;2022-11-20T23:45:28;-0.20;99.90
13673;DHT22;6909;52.202;9.876;2022-11-20T23:47:55;-0.20;99.90
13673;DHT22;6909;52.202;9.876;2022-11-20T23:50:22;-0.30;99.90
13673;DHT22;6909;52.202;9.876;2022-11-20T23:52:49;-0.40;99.90
13673;DHT22;6909;52.202;9.876;2022-11-20T23:55:15;-0.40;99.90
13673;DHT22;6909;52.202;9.876;2022-11-20T23:57:42;-0.30;99.90
